sensor_id;sensor_type;location;lat;lon;timestamp;P1;durP1;ratioP1;P2;durP2;ratioP2
63444;SDS011;49573;47.682;9.170;2023-11-21T00:00:05;8.13;;;2.30;;
63444;SDS011;49573;47.682;9.170;2023-11-21T00:02:57;8.43;;;2.75;;
63444;SDS011;49573;47.682;9.170;2023-11-21T00:05:43;6.22;;;2.30;;
63444;SDS011;49573;47.682;9.170;2023-11-21T00:08:29;6.10;;;2.60;;
63444;SDS011;49573;47.682;9.170;2023-11-21T00:11:16;8.10;;;2.45;;
63444;SDS011;49573;47.682;9.170;2023-11-21T00:14:02;9.88;;;3.03;;
63444;SDS011;49573;47.682;9.170;2023-11-21T00:16:49;8.30;;;2.08;;
63444;SDS011;49573;47.682;9.170;2023-11-21T00:19:35;8.80;;;2.60;;
63444;SDS011;49573;47.682;9.170;2023-11-21T00:22:21;5.07;;;2.00;;
63444;SDS011;49573;47.682;9.170;2023-11-21T00:25:07;6.03;;;2.50;;
63444;SDS011;49573;47.682;9.170;2023-11-21T00:27:55;9.35;;;2.13;;
63444;SDS011;49573;47.682;9.170;2023-11-21T00:30:41;6.47;;;2.47;;
63444;SDS011;49573;47.682;9.170;2023-11-21T00:33:27;4.75;;;2.10;;
63444;SDS011;49573;47.682;9.170;2023-11-21T00:36:13;4.68;;;1.70;;
63444;SDS011;49573;47.682;9.170;2023-11-21T00:38:59;9.13;;;1.95;;
63444;SDS011;49573;47.682;9.170;2023-11-21T00:41:46;6.80;;;2.05;;
63444;SDS011;49573;47.682;9.170;2023-11-21T00:44:33;7.10;;;2.27;;
63444;SDS011;49573;47.682;9.170;2023-11-21T00:47:23;8.38;;;2.30;;
63444;SDS011;49573;47.682;9.170;2023-11-21T00:50:09;6.25;;;1.92;;
63444;SDS011;49573;47.682;9.170;2023-11-21T00:52:55;5.63;;;1.77;;
63444;SDS011;49573;47.682;9.170;2023-11-21T00:55:41;4.03;;;2.03;;
63444;SDS011;49573;47.682;9.170;2023-11-21T00:58:27;3.67;;;1.55;;
63444;SDS011;49573;47.682;9.170;2023-11-21T01:01:14;7.93;;;2.75;;
63444;SDS011;49573;47.682;9.170;2023-11-21T01:04:00;7.07;;;2.05;;
63444;SDS011;49573;47.682;9.170;2023-11-21T01:06:46;5.15;;;1.90;;
63444;SDS011;49573;47.682;9.170;2023-11-21T01:09:33;5.43;;;2.10;;
63444;SDS011;49573;47.682;9.170;2023-11-21T01:12:19;7.20;;;2.22;;
63444;SDS011;49573;47.682;9.170;2023-11-21T01:15:05;6.75;;;1.98;;
63444;SDS011;49573;47.682;9.170;2023-11-21T01:17:54;6.80;;;1.90;;
63444;SDS011;49573;47.682;9.170;2023-11-21T01:20:40;6.72;;;1.83;;
63444;SDS011;49573;47.682;9.170;2023-11-21T01:23:26;4.63;;;2.10;;
63444;SDS011;49573;47.682;9.170;2023-11-21T01:26:12;6.50;;;2.20;;
63444;SDS011;49573;47.682;9.170;2023-11-21T01:28:58;4.50;;;2.25;;
63444;SDS011;49573;47.682;9.170;2023-11-21T01:31:44;4.07;;;1.97;;
63444;SDS011;49573;47.682;9.170;2023-11-21T01:34:32;6.72;;;2.25;;
63444;SDS011;49573;47.682;9.170;2023-11-21T01:37:18;4.43;;;1.60;;
63444;SDS011;49573;47.682;9.170;2023-11-21T01:40:04;5.45;;;2.25;;
63444;SDS011;49573;47.682;9.170;2023-11-21T01:42:55;6.28;;;1.98;;
63444;SDS011;49573;47.682;9.170;2023-11-21T01:45:41;4.47;;;1.53;;
63444;SDS011;49573;47.682;9.170;2023-11-21T01:48:27;6.15;;;1.98;;
63444;SDS011;49573;47.682;9.170;2023-11-21T01:51:15;3.08;;;1.17;;
63444;SDS011;49573;47.682;9.170;2023-11-21T01:54:03;4.88;;;1.70;;
63444;SDS011;49573;47.682;9.170;2023-11-21T01:56:50;5.45;;;1.70;;
63444;SDS011;49573;47.682;9.170;2023-11-21T01:59:37;7.65;;;1.63;;
63444;SDS011;49573;47.682;9.170;2023-11-21T02:02:23;5.63;;;1.50;;
63444;SDS011;49573;47.682;9.170;2023-11-21T02:05:09;3.53;;;1.58;;
63444;SDS011;49573;47.682;9.170;2023-11-21T02:07:57;9.13;;;1.83;;
63444;SDS011;49573;47.682;9.170;2023-11-21T02:10:43;5.82;;;1.42;;
63444;SDS011;49573;47.682;9.170;2023-11-21T02:13:29;5.35;;;1.88;;
63444;SDS011;49573;47.682;9.170;2023-11-21T02:16:15;5.65;;;1.73;;
63444;SDS011;49573;47.682;9.170;2023-11-21T02:19:02;6.53;;;1.83;;
63444;SDS011;49573;47.682;9.170;2023-11-21T02:21:52;6.05;;;1.60;;
63444;SDS011;49573;47.682;9.170;2023-11-21T02:24:40;5.97;;;1.60;;
63444;SDS011;49573;47.682;9.170;2023-11-21T02:27:27;3.38;;;1.50;;
63444;SDS011;49573;47.682;9.170;2023-11-21T02:30:17;4.53;;;1.60;;
63444;SDS011;49573;47.682;9.170;2023-11-21T02:33:04;7.05;;;1.67;;
63444;SDS011;49573;47.682;9.170;2023-11-21T02:35:50;3.75;;;1.42;;
63444;SDS011;49573;47.682;9.170;2023-11-21T02:38:40;2.72;;;0.88;;
63444;SDS011;49573;47.682;9.170;2023-11-21T02:41:27;4.53;;;1.17;;
63444;SDS011;49573;47.682;9.170;2023-11-21T02:44:14;2.67;;;1.10;;
63444;SDS011;49573;47.682;9.170;2023-11-21T02:47:00;2.63;;;0.80;;
63444;SDS011;49573;47.682;9.170;2023-11-21T02:49:47;2.22;;;1.02;;
63444;SDS011;49573;47.682;9.170;2023-11-21T02:52:33;3.05;;;0.95;;
63444;SDS011;49573;47.682;9.170;2023-11-21T02:55:19;2.73;;;1.13;;
63444;SDS011;49573;47.682;9.170;2023-11-21T02:58:06;3.22;;;1.23;;
63444;SDS011;49573;47.682;9.170;2023-11-21T03:00:52;1.52;;;0.77;;
63444;SDS011;49573;47.682;9.170;2023-11-21T03:03:39;5.63;;;1.58;;
63444;SDS011;49573;47.682;9.170;2023-11-21T03:06:25;3.75;;;1.10;;
63444;SDS011;49573;47.682;9.170;2023-11-21T03:09:11;3.53;;;1.23;;
63444;SDS011;49573;47.682;9.170;2023-11-21T03:11:57;3.50;;;1.33;;
63444;SDS011;49573;47.682;9.170;2023-11-21T03:14:45;3.28;;;1.33;;
63444;SDS011;49573;47.682;9.170;2023-11-21T03:17:31;6.97;;;1.75;;
63444;SDS011;49573;47.682;9.170;2023-11-21T03:20:19;4.38;;;1.48;;
63444;SDS011;49573;47.682;9.170;2023-11-21T03:23:05;2.72;;;1.30;;
63444;SDS011;49573;47.682;9.170;2023-11-21T03:25:51;2.72;;;1.20;;
63444;SDS011;49573;47.682;9.170;2023-11-21T03:28:37;4.43;;;1.15;;
63444;SDS011;49573;47.682;9.170;2023-11-21T03:31:25;3.95;;;1.60;;
63444;SDS011;49573;47.682;9.170;2023-11-21T03:34:14;4.38;;;1.27;;
63444;SDS011;49573;47.682;9.170;2023-11-21T03:37:01;3.45;;;1.08;;
63444;SDS011;49573;47.682;9.170;2023-11-21T03:39:48;1.88;;;1.00;;
63444;SDS011;49573;47.682;9.170;2023-11-21T03:42:34;2.75;;;1.15;;
63444;SDS011;49573;47.682;9.170;2023-11-21T03:45:20;1.98;;;0.90;;
63444;SDS011;49573;47.682;9.170;2023-11-21T03:48:07;3.88;;;0.90;;
63444;SDS011;49573;47.682;9.170;2023-11-21T03:50:54;1.73;;;1.00;;
63444;SDS011;49573;47.682;9.170;2023-11-21T03:53:40;1.85;;;0.80;;
63444;SDS011;49573;47.682;9.170;2023-11-21T03:56:26;3.95;;;0.98;;
63444;SDS011;49573;47.682;9.170;2023-11-21T03:59:12;2.17;;;1.05;;
63444;SDS011;49573;47.682;9.170;2023-11-21T04:01:58;1.77;;;0.75;;
63444;SDS011;49573;47.682;9.170;2023-11-21T04:04:45;3.95;;;1.20;;
63444;SDS011;49573;47.682;9.170;2023-11-21T04:07:32;5.15;;;1.30;;
63444;SDS011;49573;47.682;9.170;2023-11-21T04:10:18;3.80;;;1.25;;
63444;SDS011;49573;47.682;9.170;2023-11-21T04:13:05;2.30;;;0.90;;
63444;SDS011;49573;47.682;9.170;2023-11-21T04:15:52;2.92;;;0.95;;
63444;SDS011;49573;47.682;9.170;2023-11-21T04:18:38;4.35;;;1.23;;
63444;SDS011;49573;47.682;9.170;2023-11-21T04:21:26;3.33;;;1.10;;
63444;SDS011;49573;47.682;9.170;2023-11-21T04:24:12;2.95;;;1.00;;
63444;SDS011;49573;47.682;9.170;2023-11-21T04:26:58;3.78;;;1.10;;
63444;SDS011;49573;47.682;9.170;2023-11-21T04:29:44;2.47;;;1.10;;
63444;SDS011;49573;47.682;9.170;2023-11-21T04:32:30;3.65;;;1.13;;
63444;SDS011;49573;47.682;9.170;2023-11-21T04:35:16;6.55;;;1.40;;
63444;SDS011;49573;47.682;9.170;2023-11-21T04:38:03;4.10;;;1.25;;
63444;SDS011;49573;47.682;9.170;2023-11-21T04:40:50;2.22;;;1.08;;
63444;SDS011;49573;47.682;9.170;2023-11-21T04:43:36;1.48;;;0.85;;
63444;SDS011;49573;47.682;9.170;2023-11-21T04:46:22;4.65;;;1.40;;
63444;SDS011;49573;47.682;9.170;2023-11-21T04:49:08;4.53;;;1.42;;
63444;SDS011;49573;47.682;9.170;2023-11-21T04:51:54;2.30;;;1.20;;
63444;SDS011;49573;47.682;9.170;2023-11-21T04:54:42;2.80;;;1.05;;
63444;SDS011;49573;47.682;9.170;2023-11-21T04:57:28;2.97;;;1.42;;
63444;SDS011;49573;47.682;9.170;2023-11-21T05:00:14;6.00;;;1.33;;
63444;SDS011;49573;47.682;9.170;2023-11-21T05:03:01;3.63;;;1.33;;
63444;SDS011;49573;47.682;9.170;2023-11-21T05:05:47;6.05;;;1.85;;
63444;SDS011;49573;47.682;9.170;2023-11-21T05:08:33;6.60;;;1.17;;
63444;SDS011;49573;47.682;9.170;2023-11-21T05:11:24;3.55;;;1.13;;
63444;SDS011;49573;47.682;9.170;2023-11-21T05:14:11;2.10;;;1.10;;
63444;SDS011;49573;47.682;9.170;2023-11-21T05:16:57;3.42;;;1.05;;
63444;SDS011;49573;47.682;9.170;2023-11-21T05:19:44;3.22;;;1.67;;
63444;SDS011;49573;47.682;9.170;2023-11-21T05:22:31;5.43;;;1.25;;
63444;SDS011;49573;47.682;9.170;2023-11-21T05:25:17;4.75;;;1.48;;
63444;SDS011;49573;47.682;9.170;2023-11-21T05:28:05;2.88;;;1.35;;
63444;SDS011;49573;47.682;9.170;2023-11-21T05:30:52;4.57;;;1.50;;
63444;SDS011;49573;47.682;9.170;2023-11-21T05:33:38;4.68;;;1.30;;
63444;SDS011;49573;47.682;9.170;2023-11-21T05:36:24;4.20;;;1.40;;
63444;SDS011;49573;47.682;9.170;2023-11-21T05:39:11;3.40;;;1.40;;
63444;SDS011;49573;47.682;9.170;2023-11-21T05:41:57;2.43;;;1.23;;
63444;SDS011;49573;47.682;9.170;2023-11-21T05:44:46;10.00;;;3.45;;
63444;SDS011;49573;47.682;9.170;2023-11-21T05:47:32;11.45;;;5.38;;
63444;SDS011;49573;47.682;9.170;2023-11-21T05:50:18;14.82;;;6.38;;
63444;SDS011;49573;47.682;9.170;2023-11-21T05:53:04;9.35;;;4.65;;
63444;SDS011;49573;47.682;9.170;2023-11-21T05:55:50;4.05;;;1.58;;
63444;SDS011;49573;47.682;9.170;2023-11-21T05:58:37;9.57;;;2.17;;
63444;SDS011;49573;47.682;9.170;2023-11-21T06:01:24;4.72;;;2.13;;
63444;SDS011;49573;47.682;9.170;2023-11-21T06:04:10;5.68;;;1.90;;
63444;SDS011;49573;47.682;9.170;2023-11-21T06:06:56;3.20;;;1.98;;
63444;SDS011;49573;47.682;9.170;2023-11-21T06:09:42;3.80;;;1.45;;
63444;SDS011;49573;47.682;9.170;2023-11-21T06:12:30;3.78;;;1.17;;
63444;SDS011;49573;47.682;9.170;2023-11-21T06:15:16;5.87;;;1.33;;
63444;SDS011;49573;47.682;9.170;2023-11-21T06:18:05;2.80;;;1.30;;
63444;SDS011;49573;47.682;9.170;2023-11-21T06:20:55;2.15;;;1.20;;
63444;SDS011;49573;47.682;9.170;2023-11-21T06:23:41;6.60;;;2.85;;
63444;SDS011;49573;47.682;9.170;2023-11-21T06:26:27;5.77;;;1.97;;
63444;SDS011;49573;47.682;9.170;2023-11-21T06:29:14;4.95;;;2.17;;
63444;SDS011;49573;47.682;9.170;2023-11-21T06:32:00;3.15;;;2.08;;
63444;SDS011;49573;47.682;9.170;2023-11-21T06:34:49;2.90;;;1.50;;
63444;SDS011;49573;47.682;9.170;2023-11-21T06:37:35;4.88;;;2.40;;
63444;SDS011;49573;47.682;9.170;2023-11-21T06:40:21;5.60;;;2.73;;
63444;SDS011;49573;47.682;9.170;2023-11-21T06:43:08;4.83;;;2.40;;
63444;SDS011;49573;47.682;9.170;2023-11-21T06:45:54;6.10;;;2.55;;
63444;SDS011;49573;47.682;9.170;2023-11-21T06:48:40;6.70;;;3.60;;
63444;SDS011;49573;47.682;9.170;2023-11-21T06:51:28;8.70;;;1.95;;
63444;SDS011;49573;47.682;9.170;2023-11-21T06:54:14;2.63;;;1.58;;
63444;SDS011;49573;47.682;9.170;2023-11-21T06:57:01;4.57;;;1.92;;
63444;SDS011;49573;47.682;9.170;2023-11-21T07:02:34;3.88;;;1.70;;
63444;SDS011;49573;47.682;9.170;2023-11-21T07:05:20;5.70;;;1.83;;
63444;SDS011;49573;47.682;9.170;2023-11-21T07:08:08;5.22;;;2.00;;
63444;SDS011;49573;47.682;9.170;2023-11-21T07:10:54;2.88;;;1.73;;
63444;SDS011;49573;47.682;9.170;2023-11-21T07:13:40;4.13;;;1.73;;
63444;SDS011;49573;47.682;9.170;2023-11-21T07:16:26;3.75;;;1.80;;
63444;SDS011;49573;47.682;9.170;2023-11-21T07:19:12;7.60;;;1.88;;
63444;SDS011;49573;47.682;9.170;2023-11-21T07:21:59;4.60;;;1.88;;
63444;SDS011;49573;47.682;9.170;2023-11-21T07:24:47;4.97;;;2.00;;
63444;SDS011;49573;47.682;9.170;2023-11-21T07:27:34;5.00;;;2.03;;
63444;SDS011;49573;47.682;9.170;2023-11-21T07:33:08;4.95;;;1.80;;
63444;SDS011;49573;47.682;9.170;2023-11-21T07:35:54;5.68;;;2.15;;
63444;SDS011;49573;47.682;9.170;2023-11-21T07:38:40;5.57;;;1.70;;
63444;SDS011;49573;47.682;9.170;2023-11-21T07:41:28;2.05;;;1.52;;
63444;SDS011;49573;47.682;9.170;2023-11-21T07:44:15;3.88;;;1.60;;
63444;SDS011;49573;47.682;9.170;2023-11-21T07:47:01;4.28;;;1.80;;
63444;SDS011;49573;47.682;9.170;2023-11-21T07:49:50;3.75;;;1.67;;
63444;SDS011;49573;47.682;9.170;2023-11-21T07:52:36;2.20;;;1.58;;
63444;SDS011;49573;47.682;9.170;2023-11-21T07:55:22;5.28;;;1.77;;
63444;SDS011;49573;47.682;9.170;2023-11-21T07:58:11;3.50;;;1.80;;
63444;SDS011;49573;47.682;9.170;2023-11-21T08:00:58;4.90;;;1.70;;
63444;SDS011;49573;47.682;9.170;2023-11-21T08:03:44;4.40;;;1.60;;
63444;SDS011;49573;47.682;9.170;2023-11-21T08:06:30;4.38;;;1.73;;
63444;SDS011;49573;47.682;9.170;2023-11-21T08:09:16;2.90;;;1.75;;
63444;SDS011;49573;47.682;9.170;2023-11-21T08:12:03;3.20;;;1.65;;
63444;SDS011;49573;47.682;9.170;2023-11-21T08:14:51;1.92;;;1.40;;
63444;SDS011;49573;47.682;9.170;2023-11-21T08:17:37;4.72;;;1.58;;
63444;SDS011;49573;47.682;9.170;2023-11-21T08:20:24;5.22;;;1.70;;
63444;SDS011;49573;47.682;9.170;2023-11-21T08:23:10;3.93;;;1.70;;
63444;SDS011;49573;47.682;9.170;2023-11-21T08:25:56;3.72;;;1.77;;
63444;SDS011;49573;47.682;9.170;2023-11-21T08:28:42;4.47;;;1.63;;
63444;SDS011;49573;47.682;9.170;2023-11-21T08:31:29;3.92;;;2.10;;
63444;SDS011;49573;47.682;9.170;2023-11-21T08:34:16;3.92;;;1.48;;
63444;SDS011;49573;47.682;9.170;2023-11-21T08:37:02;3.75;;;1.50;;
63444;SDS011;49573;47.682;9.170;2023-11-21T08:39:48;5.03;;;2.23;;
63444;SDS011;49573;47.682;9.170;2023-11-21T08:42:34;4.80;;;1.65;;
63444;SDS011;49573;47.682;9.170;2023-11-21T08:45:21;3.25;;;1.83;;
63444;SDS011;49573;47.682;9.170;2023-11-21T08:48:09;4.95;;;2.20;;
63444;SDS011;49573;47.682;9.170;2023-11-21T08:50:56;3.47;;;1.75;;
63444;SDS011;49573;47.682;9.170;2023-11-21T08:53:43;3.78;;;2.00;;
63444;SDS011;49573;47.682;9.170;2023-11-21T08:56:29;3.20;;;1.80;;
63444;SDS011;49573;47.682;9.170;2023-11-21T08:59:15;5.28;;;2.67;;
63444;SDS011;49573;47.682;9.170;2023-11-21T09:02:01;4.20;;;1.85;;
63444;SDS011;49573;47.682;9.170;2023-11-21T09:04:49;4.05;;;2.00;;
63444;SDS011;49573;47.682;9.170;2023-11-21T09:07:36;4.43;;;1.95;;
63444;SDS011;49573;47.682;9.170;2023-11-21T09:10:23;3.88;;;1.90;;
63444;SDS011;49573;47.682;9.170;2023-11-21T09:13:10;2.35;;;1.67;;
63444;SDS011;49573;47.682;9.170;2023-11-21T09:15:57;3.92;;;1.65;;
63444;SDS011;49573;47.682;9.170;2023-11-21T09:18:44;2.27;;;1.50;;
63444;SDS011;49573;47.682;9.170;2023-11-21T09:21:32;3.67;;;1.80;;
63444;SDS011;49573;47.682;9.170;2023-11-21T09:24:19;2.45;;;1.88;;
63444;SDS011;49573;47.682;9.170;2023-11-21T09:27:05;3.50;;;1.92;;
63444;SDS011;49573;47.682;9.170;2023-11-21T09:29:51;4.15;;;1.90;;
63444;SDS011;49573;47.682;9.170;2023-11-21T09:32:38;4.32;;;2.03;;
63444;SDS011;49573;47.682;9.170;2023-11-21T09:38:14;3.13;;;1.98;;
63444;SDS011;49573;47.682;9.170;2023-11-21T09:41:00;4.13;;;1.88;;
63444;SDS011;49573;47.682;9.170;2023-11-21T09:43:50;3.58;;;2.10;;
63444;SDS011;49573;47.682;9.170;2023-11-21T09:46:42;4.32;;;2.20;;
63444;SDS011;49573;47.682;9.170;2023-11-21T09:49:29;3.97;;;2.25;;
63444;SDS011;49573;47.682;9.170;2023-11-21T09:52:22;3.90;;;2.40;;
63444;SDS011;49573;47.682;9.170;2023-11-21T09:55:14;6.88;;;2.22;;
63444;SDS011;49573;47.682;9.170;2023-11-21T09:58:04;5.63;;;2.30;;
63444;SDS011;49573;47.682;9.170;2023-11-21T10:00:53;3.90;;;2.05;;
63444;SDS011;49573;47.682;9.170;2023-11-21T10:03:41;4.05;;;2.25;;
63444;SDS011;49573;47.682;9.170;2023-11-21T10:06:28;4.65;;;2.30;;
63444;SDS011;49573;47.682;9.170;2023-11-21T10:09:16;4.97;;;2.40;;
63444;SDS011;49573;47.682;9.170;2023-11-21T10:12:07;4.47;;;2.30;;
63444;SDS011;49573;47.682;9.170;2023-11-21T10:14:55;3.22;;;2.17;;
63444;SDS011;49573;47.682;9.170;2023-11-21T10:17:45;5.65;;;2.47;;
63444;SDS011;49573;47.682;9.170;2023-11-21T10:20:34;4.63;;;2.30;;
63444;SDS011;49573;47.682;9.170;2023-11-21T10:23:20;6.43;;;2.20;;
63444;SDS011;49573;47.682;9.170;2023-11-21T10:26:07;4.05;;;2.30;;
63444;SDS011;49573;47.682;9.170;2023-11-21T10:29:02;3.78;;;2.22;;
63444;SDS011;49573;47.682;9.170;2023-11-21T10:31:49;3.60;;;1.85;;
63444;SDS011;49573;47.682;9.170;2023-11-21T10:34:36;3.47;;;1.85;;
63444;SDS011;49573;47.682;9.170;2023-11-21T10:37:22;3.92;;;1.88;;
63444;SDS011;49573;47.682;9.170;2023-11-21T10:40:09;2.63;;;1.57;;
63444;SDS011;49573;47.682;9.170;2023-11-21T10:43:05;2.75;;;1.60;;
63444;SDS011;49573;47.682;9.170;2023-11-21T10:45:55;3.13;;;1.60;;
63444;SDS011;49573;47.682;9.170;2023-11-21T10:48:45;3.95;;;1.60;;
63444;SDS011;49573;47.682;9.170;2023-11-21T10:51:32;3.22;;;1.77;;
63444;SDS011;49573;47.682;9.170;2023-11-21T10:54:18;4.25;;;2.13;;
63444;SDS011;49573;47.682;9.170;2023-11-21T10:57:06;3.08;;;1.83;;
63444;SDS011;49573;47.682;9.170;2023-11-21T10:59:52;4.85;;;2.25;;
63444;SDS011;49573;47.682;9.170;2023-11-21T11:02:42;6.75;;;2.13;;
63444;SDS011;49573;47.682;9.170;2023-11-21T11:05:29;3.05;;;1.70;;
63444;SDS011;49573;47.682;9.170;2023-11-21T11:08:17;2.90;;;1.77;;
63444;SDS011;49573;47.682;9.170;2023-11-21T11:11:06;2.55;;;1.98;;
63444;SDS011;49573;47.682;9.170;2023-11-21T11:13:52;2.00;;;1.80;;
63444;SDS011;49573;47.682;9.170;2023-11-21T11:16:39;3.08;;;2.00;;
63444;SDS011;49573;47.682;9.170;2023-11-21T11:19:27;2.35;;;1.80;;
63444;SDS011;49573;47.682;9.170;2023-11-21T11:22:25;1.98;;;1.08;;
63444;SDS011;49573;47.682;9.170;2023-11-21T11:25:33;2.38;;;1.30;;
63444;SDS011;49573;47.682;9.170;2023-11-21T11:28:32;3.47;;;1.42;;
63444;SDS011;49573;47.682;9.170;2023-11-21T11:31:26;2.35;;;1.40;;
63444;SDS011;49573;47.682;9.170;2023-11-21T11:34:26;4.63;;;1.80;;
63444;SDS011;49573;47.682;9.170;2023-11-21T11:37:18;1.85;;;1.00;;
63444;SDS011;49573;47.682;9.170;2023-11-21T11:40:05;2.92;;;1.05;;
63444;SDS011;49573;47.682;9.170;2023-11-21T11:45:44;2.75;;;1.25;;
63444;SDS011;49573;47.682;9.170;2023-11-21T11:48:35;1.80;;;1.20;;
63444;SDS011;49573;47.682;9.170;2023-11-21T11:51:25;1.92;;;0.90;;
63444;SDS011;49573;47.682;9.170;2023-11-21T11:54:11;1.30;;;0.80;;
63444;SDS011;49573;47.682;9.170;2023-11-21T11:56:58;1.05;;;0.73;;
63444;SDS011;49573;47.682;9.170;2023-11-21T12:02:57;1.65;;;0.95;;
63444;SDS011;49573;47.682;9.170;2023-11-21T12:05:49;0.93;;;0.60;;
63444;SDS011;49573;47.682;9.170;2023-11-21T12:08:40;0.82;;;0.60;;
63444;SDS011;49573;47.682;9.170;2023-11-21T12:11:30;2.00;;;0.90;;
63444;SDS011;49573;47.682;9.170;2023-11-21T12:14:16;0.82;;;0.70;;
63444;SDS011;49573;47.682;9.170;2023-11-21T12:17:03;1.95;;;0.80;;
63444;SDS011;49573;47.682;9.170;2023-11-21T12:19:50;1.35;;;0.70;;
63444;SDS011;49573;47.682;9.170;2023-11-21T12:22:37;0.75;;;0.50;;
63444;SDS011;49573;47.682;9.170;2023-11-21T12:25:26;1.77;;;1.15;;
63444;SDS011;49573;47.682;9.170;2023-11-21T12:28:17;2.53;;;0.90;;
63444;SDS011;49573;47.682;9.170;2023-11-21T12:31:04;1.13;;;0.90;;
63444;SDS011;49573;47.682;9.170;2023-11-21T12:33:52;2.35;;;1.10;;
63444;SDS011;49573;47.682;9.170;2023-11-21T12:36:38;1.90;;;1.38;;
63444;SDS011;49573;47.682;9.170;2023-11-21T12:39:24;1.23;;;0.70;;
63444;SDS011;49573;47.682;9.170;2023-11-21T12:42:11;1.00;;;1.00;;
63444;SDS011;49573;47.682;9.170;2023-11-21T12:45:07;1.15;;;0.70;;
63444;SDS011;49573;47.682;9.170;2023-11-21T12:48:00;1.08;;;0.82;;
63444;SDS011;49573;47.682;9.170;2023-11-21T12:50:52;1.65;;;1.55;;
63444;SDS011;49573;47.682;9.170;2023-11-21T12:53:38;3.63;;;1.83;;
63444;SDS011;49573;47.682;9.170;2023-11-21T12:56:26;2.63;;;1.67;;
63444;SDS011;49573;47.682;9.170;2023-11-21T12:59:13;1.77;;;1.30;;
63444;SDS011;49573;47.682;9.170;2023-11-21T13:02:01;2.25;;;1.40;;
63444;SDS011;49573;47.682;9.170;2023-11-21T13:04:51;1.58;;;1.00;;
63444;SDS011;49573;47.682;9.170;2023-11-21T13:07:40;2.10;;;1.90;;
63444;SDS011;49573;47.682;9.170;2023-11-21T13:10:32;5.10;;;4.70;;
63444;SDS011;49573;47.682;9.170;2023-11-21T13:13:21;4.90;;;4.50;;
63444;SDS011;49573;47.682;9.170;2023-11-21T13:16:10;4.80;;;4.50;;
63444;SDS011;49573;47.682;9.170;2023-11-21T13:18:58;4.32;;;3.92;;
63444;SDS011;49573;47.682;9.170;2023-11-21T13:21:44;3.00;;;2.80;;
63444;SDS011;49573;47.682;9.170;2023-11-21T13:24:30;1.63;;;1.52;;
63444;SDS011;49573;47.682;9.170;2023-11-21T13:27:17;2.33;;;1.35;;
63444;SDS011;49573;47.682;9.170;2023-11-21T13:30:04;2.13;;;1.52;;
63444;SDS011;49573;47.682;9.170;2023-11-21T13:32:55;3.38;;;1.67;;
63444;SDS011;49573;47.682;9.170;2023-11-21T13:35:47;1.63;;;1.20;;
63444;SDS011;49573;47.682;9.170;2023-11-21T13:38:35;1.40;;;1.08;;
63444;SDS011;49573;47.682;9.170;2023-11-21T13:41:22;2.20;;;2.00;;
63444;SDS011;49573;47.682;9.170;2023-11-21T13:44:15;3.35;;;2.10;;
63444;SDS011;49573;47.682;9.170;2023-11-21T13:47:11;2.03;;;1.67;;
63444;SDS011;49573;47.682;9.170;2023-11-21T13:52:46;3.38;;;1.60;;
63444;SDS011;49573;47.682;9.170;2023-11-21T13:55:32;2.13;;;1.50;;
63444;SDS011;49573;47.682;9.170;2023-11-21T13:58:18;1.63;;;1.30;;
63444;SDS011;49573;47.682;9.170;2023-11-21T14:01:08;2.63;;;1.60;;
63444;SDS011;49573;47.682;9.170;2023-11-21T14:04:12;2.78;;;1.77;;
63444;SDS011;49573;47.682;9.170;2023-11-21T14:07:00;2.78;;;1.40;;
63444;SDS011;49573;47.682;9.170;2023-11-21T14:09:56;2.90;;;1.50;;
63444;SDS011;49573;47.682;9.170;2023-11-21T14:12:43;4.30;;;2.10;;
63444;SDS011;49573;47.682;9.170;2023-11-21T14:18:18;3.53;;;1.73;;
63444;SDS011;49573;47.682;9.170;2023-11-21T14:21:12;1.33;;;1.00;;
63444;SDS011;49573;47.682;9.170;2023-11-21T14:26:48;3.42;;;2.80;;
63444;SDS011;49573;47.682;9.170;2023-11-21T14:29:34;1.58;;;1.40;;
63444;SDS011;49573;47.682;9.170;2023-11-21T14:32:26;1.25;;;1.00;;
63444;SDS011;49573;47.682;9.170;2023-11-21T14:35:12;1.83;;;1.10;;
63444;SDS011;49573;47.682;9.170;2023-11-21T14:37:59;1.25;;;1.13;;
63444;SDS011;49573;47.682;9.170;2023-11-21T14:40:48;2.15;;;0.98;;
63444;SDS011;49573;47.682;9.170;2023-11-21T14:43:34;1.13;;;0.80;;
63444;SDS011;49573;47.682;9.170;2023-11-21T14:46:21;2.05;;;1.10;;
63444;SDS011;49573;47.682;9.170;2023-11-21T14:49:07;1.10;;;1.00;;
63444;SDS011;49573;47.682;9.170;2023-11-21T14:52:04;1.85;;;1.17;;
63444;SDS011;49573;47.682;9.170;2023-11-21T14:55:05;2.17;;;1.10;;
63444;SDS011;49573;47.682;9.170;2023-11-21T14:58:12;2.05;;;1.20;;
63444;SDS011;49573;47.682;9.170;2023-11-21T15:01:02;2.40;;;1.40;;
63444;SDS011;49573;47.682;9.170;2023-11-21T15:03:49;4.22;;;2.08;;
63444;SDS011;49573;47.682;9.170;2023-11-21T15:06:35;4.32;;;2.50;;
63444;SDS011;49573;47.682;9.170;2023-11-21T15:09:21;5.50;;;2.63;;
63444;SDS011;49573;47.682;9.170;2023-11-21T15:12:08;3.05;;;2.03;;
63444;SDS011;49573;47.682;9.170;2023-11-21T15:15:02;3.67;;;1.95;;
63444;SDS011;49573;47.682;9.170;2023-11-21T15:17:49;1.70;;;1.48;;
63444;SDS011;49573;47.682;9.170;2023-11-21T15:20:35;2.78;;;1.88;;
63444;SDS011;49573;47.682;9.170;2023-11-21T15:23:21;3.15;;;1.88;;
63444;SDS011;49573;47.682;9.170;2023-11-21T15:26:07;1.75;;;1.25;;
63444;SDS011;49573;47.682;9.170;2023-11-21T15:28:55;2.72;;;1.73;;
63444;SDS011;49573;47.682;9.170;2023-11-21T15:31:43;1.95;;;1.40;;
63444;SDS011;49573;47.682;9.170;2023-11-21T15:34:33;2.28;;;1.52;;
63444;SDS011;49573;47.682;9.170;2023-11-21T15:37:20;2.13;;;1.70;;
63444;SDS011;49573;47.682;9.170;2023-11-21T15:40:07;2.97;;;2.17;;
63444;SDS011;49573;47.682;9.170;2023-11-21T15:42:54;3.15;;;2.00;;
63444;SDS011;49573;47.682;9.170;2023-11-21T15:45:40;3.90;;;2.10;;
63444;SDS011;49573;47.682;9.170;2023-11-21T15:48:28;3.83;;;2.28;;
63444;SDS011;49573;47.682;9.170;2023-11-21T15:51:15;5.25;;;2.70;;
63444;SDS011;49573;47.682;9.170;2023-11-21T15:54:02;3.50;;;2.20;;
63444;SDS011;49573;47.682;9.170;2023-11-21T15:56:49;4.10;;;2.38;;
63444;SDS011;49573;47.682;9.170;2023-11-21T15:59:35;2.97;;;2.10;;
63444;SDS011;49573;47.682;9.170;2023-11-21T16:02:21;2.90;;;2.13;;
63444;SDS011;49573;47.682;9.170;2023-11-21T16:05:08;3.22;;;1.80;;
63444;SDS011;49573;47.682;9.170;2023-11-21T16:07:55;2.47;;;1.90;;
63444;SDS011;49573;47.682;9.170;2023-11-21T16:10:41;3.45;;;2.15;;
63444;SDS011;49573;47.682;9.170;2023-11-21T16:13:27;4.18;;;1.90;;
63444;SDS011;49573;47.682;9.170;2023-11-21T16:16:13;4.40;;;2.13;;
63444;SDS011;49573;47.682;9.170;2023-11-21T16:19:01;5.28;;;2.10;;
63444;SDS011;49573;47.682;9.170;2023-11-21T16:21:49;3.97;;;2.50;;
63444;SDS011;49573;47.682;9.170;2023-11-21T16:24:35;14.68;;;7.00;;
63444;SDS011;49573;47.682;9.170;2023-11-21T16:27:22;7.68;;;4.18;;
63444;SDS011;49573;47.682;9.170;2023-11-21T16:30:09;5.50;;;3.25;;
63444;SDS011;49573;47.682;9.170;2023-11-21T16:32:55;4.40;;;2.90;;
63444;SDS011;49573;47.682;9.170;2023-11-21T16:35:41;4.28;;;3.00;;
63444;SDS011;49573;47.682;9.170;2023-11-21T16:38:29;5.72;;;3.42;;
63444;SDS011;49573;47.682;9.170;2023-11-21T16:41:15;5.15;;;2.70;;
63444;SDS011;49573;47.682;9.170;2023-11-21T16:44:03;3.08;;;1.85;;
63444;SDS011;49573;47.682;9.170;2023-11-21T16:46:49;2.47;;;1.73;;
63444;SDS011;49573;47.682;9.170;2023-11-21T16:49:43;1.50;;;1.25;;
63444;SDS011;49573;47.682;9.170;2023-11-21T16:52:30;2.88;;;1.77;;
63444;SDS011;49573;47.682;9.170;2023-11-21T16:55:18;2.72;;;1.83;;
63444;SDS011;49573;47.682;9.170;2023-11-21T16:58:04;3.92;;;1.70;;
63444;SDS011;49573;47.682;9.170;2023-11-21T17:00:50;6.97;;;2.17;;
63444;SDS011;49573;47.682;9.170;2023-11-21T17:03:36;2.90;;;1.90;;
63444;SDS011;49573;47.682;9.170;2023-11-21T17:06:22;2.60;;;2.00;;
63444;SDS011;49573;47.682;9.170;2023-11-21T17:09:09;2.78;;;1.77;;
63444;SDS011;49573;47.682;9.170;2023-11-21T17:11:56;2.92;;;1.70;;